sensor_id;sensor_type;location;lat;lon;timestamp;P1;durP1;ratioP1;P2;durP2;ratioP2
15230;SDS011;32569;51.762;8.564;2023-04-01T00:02:01;1.00;;;0.90;;
15230;SDS011;32569;51.762;8.564;2023-04-01T00:04:27;3.10;;;1.37;;
15230;SDS011;32569;51.762;8.564;2023-04-01T00:06:57;2.07;;;1.23;;
15230;SDS011;32569;51.762;8.564;2023-04-01T00:09:24;0.90;;;0.90;;
15230;SDS011;32569;51.762;8.564;2023-04-01T00:11:51;1.80;;;1.30;;
15230;SDS011;32569;51.762;8.564;2023-04-01T00:14:17;2.73;;;1.10;;
15230;SDS011;32569;51.762;8.564;2023-04-01T00:16:47;1.63;;;1.00;;
15230;SDS011;32569;51.762;8.564;2023-04-01T00:19:15;1.63;;;0.90;;
15230;SDS011;32569;51.762;8.564;2023-04-01T00:21:42;4.53;;;2.00;;
15230;SDS011;32569;51.762;8.564;2023-04-01T00:24:08;0.90;;;0.90;;
15230;SDS011;32569;51.762;8.564;2023-04-01T00:26:35;1.10;;;1.00;;
15230;SDS011;32569;51.762;8.564;2023-04-01T00:29:02;3.27;;;1.07;;
15230;SDS011;32569;51.762;8.564;2023-04-01T00:31:29;1.40;;;0.93;;
15230;SDS011;32569;51.762;8.564;2023-04-01T00:33:55;2.30;;;0.93;;
15230;SDS011;32569;51.762;8.564;2023-04-01T00:36:26;2.23;;;1.00;;
15230;SDS011;32569;51.762;8.564;2023-04-01T00:38:56;0.70;;;0.70;;
15230;SDS011;32569;51.762;8.564;2023-04-01T00:41:23;0.97;;;0.97;;
15230;SDS011;32569;51.762;8.564;2023-04-01T00:43:51;0.77;;;0.77;;
15230;SDS011;32569;51.762;8.564;2023-04-01T00:46:38;1.30;;;1.10;;
15230;SDS011;32569;51.762;8.564;2023-04-01T00:49:05;0.80;;;0.80;;
15230;SDS011;32569;51.762;8.564;2023-04-01T00:51:33;1.30;;;1.00;;
15230;SDS011;32569;51.762;8.564;2023-04-01T00:54:02;1.20;;;1.07;;
15230;SDS011;32569;51.762;8.564;2023-04-01T00:56:30;1.80;;;1.23;;
15230;SDS011;32569;51.762;8.564;2023-04-01T00:59:01;2.20;;;1.07;;
15230;SDS011;32569;51.762;8.564;2023-04-01T01:01:30;1.07;;;1.07;;
15230;SDS011;32569;51.762;8.564;2023-04-01T01:03:58;1.33;;;1.00;;
15230;SDS011;32569;51.762;8.564;2023-04-01T01:06:38;1.73;;;1.00;;
15230;SDS011;32569;51.762;8.564;2023-04-01T01:09:25;1.03;;;1.03;;
15230;SDS011;32569;51.762;8.564;2023-04-01T01:11:58;1.30;;;0.97;;
15230;SDS011;32569;51.762;8.564;2023-04-01T01:14:36;0.93;;;0.90;;
15230;SDS011;32569;51.762;8.564;2023-04-01T01:17:12;1.27;;;1.07;;
15230;SDS011;32569;51.762;8.564;2023-04-01T01:22:54;1.30;;;1.20;;
15230;SDS011;32569;51.762;8.564;2023-04-01T01:25:40;1.90;;;1.00;;
15230;SDS011;32569;51.762;8.564;2023-04-01T01:28:22;1.47;;;1.10;;
15230;SDS011;32569;51.762;8.564;2023-04-01T01:31:02;1.83;;;0.90;;
15230;SDS011;32569;51.762;8.564;2023-04-01T01:33:47;1.87;;;0.90;;
15230;SDS011;32569;51.762;8.564;2023-04-01T01:36:27;1.27;;;0.90;;
15230;SDS011;32569;51.762;8.564;2023-04-01T01:39:02;2.63;;;0.93;;
15230;SDS011;32569;51.762;8.564;2023-04-01T01:41:31;2.40;;;1.10;;
15230;SDS011;32569;51.762;8.564;2023-04-01T01:44:03;0.90;;;0.77;;
15230;SDS011;32569;51.762;8.564;2023-04-01T01:46:34;1.10;;;1.10;;
15230;SDS011;32569;51.762;8.564;2023-04-01T01:49:04;1.93;;;1.57;;
15230;SDS011;32569;51.762;8.564;2023-04-01T01:51:34;1.67;;;1.00;;
15230;SDS011;32569;51.762;8.564;2023-04-01T01:54:04;1.07;;;0.97;;
15230;SDS011;32569;51.762;8.564;2023-04-01T01:56:33;1.50;;;1.40;;
15230;SDS011;32569;51.762;8.564;2023-04-01T01:59:02;1.40;;;1.30;;
15230;SDS011;32569;51.762;8.564;2023-04-01T02:01:31;2.10;;;2.00;;
15230;SDS011;32569;51.762;8.564;2023-04-01T02:04:02;2.20;;;2.10;;
15230;SDS011;32569;51.762;8.564;2023-04-01T02:06:34;2.43;;;2.23;;
15230;SDS011;32569;51.762;8.564;2023-04-01T02:09:05;3.20;;;2.90;;
15230;SDS011;32569;51.762;8.564;2023-04-01T02:11:36;2.10;;;2.00;;
15230;SDS011;32569;51.762;8.564;2023-04-01T02:14:06;1.60;;;1.50;;
15230;SDS011;32569;51.762;8.564;2023-04-01T02:16:38;2.97;;;2.23;;
15230;SDS011;32569;51.762;8.564;2023-04-01T02:19:09;3.17;;;1.77;;
15230;SDS011;32569;51.762;8.564;2023-04-01T02:21:41;2.30;;;2.20;;
15230;SDS011;32569;51.762;8.564;2023-04-01T02:24:10;2.20;;;1.43;;
15230;SDS011;32569;51.762;8.564;2023-04-01T02:26:40;1.30;;;1.20;;
15230;SDS011;32569;51.762;8.564;2023-04-01T02:29:07;1.97;;;1.40;;
15230;SDS011;32569;51.762;8.564;2023-04-01T02:31:43;2.80;;;1.90;;
15230;SDS011;32569;51.762;8.564;2023-04-01T02:34:10;1.30;;;1.30;;
15230;SDS011;32569;51.762;8.564;2023-04-01T02:36:37;2.60;;;1.20;;
15230;SDS011;32569;51.762;8.564;2023-04-01T02:39:08;1.43;;;1.30;;
15230;SDS011;32569;51.762;8.564;2023-04-01T02:41:38;1.10;;;1.00;;
15230;SDS011;32569;51.762;8.564;2023-04-01T02:44:08;1.57;;;1.47;;
15230;SDS011;32569;51.762;8.564;2023-04-01T02:46:35;1.30;;;1.20;;
15230;SDS011;32569;51.762;8.564;2023-04-01T02:49:03;2.13;;;2.00;;
15230;SDS011;32569;51.762;8.564;2023-04-01T02:51:30;3.13;;;1.40;;
15230;SDS011;32569;51.762;8.564;2023-04-01T02:54:00;1.57;;;1.23;;
15230;SDS011;32569;51.762;8.564;2023-04-01T02:56:31;1.63;;;1.53;;
15230;SDS011;32569;51.762;8.564;2023-04-01T02:58:58;1.80;;;1.70;;
15230;SDS011;32569;51.762;8.564;2023-04-01T03:01:28;0.90;;;0.90;;
15230;SDS011;32569;51.762;8.564;2023-04-01T03:03:54;1.40;;;1.30;;
15230;SDS011;32569;51.762;8.564;2023-04-01T03:06:21;1.23;;;1.13;;
15230;SDS011;32569;51.762;8.564;2023-04-01T03:08:48;1.13;;;1.13;;
15230;SDS011;32569;51.762;8.564;2023-04-01T03:11:15;1.13;;;0.90;;
15230;SDS011;32569;51.762;8.564;2023-04-01T03:13:45;1.37;;;0.90;;
15230;SDS011;32569;51.762;8.564;2023-04-01T03:16:12;1.37;;;1.27;;
15230;SDS011;32569;51.762;8.564;2023-04-01T03:18:39;1.37;;;1.27;;
15230;SDS011;32569;51.762;8.564;2023-04-01T03:21:12;1.50;;;1.40;;
15230;SDS011;32569;51.762;8.564;2023-04-01T03:23:49;0.90;;;0.90;;
15230;SDS011;32569;51.762;8.564;2023-04-01T03:26:15;0.80;;;0.80;;
15230;SDS011;32569;51.762;8.564;2023-04-01T03:28:43;2.60;;;1.10;;
15230;SDS011;32569;51.762;8.564;2023-04-01T03:31:13;0.90;;;0.90;;
15230;SDS011;32569;51.762;8.564;2023-04-01T03:33:41;1.90;;;1.07;;
15230;SDS011;32569;51.762;8.564;2023-04-01T03:36:08;0.80;;;0.80;;
15230;SDS011;32569;51.762;8.564;2023-04-01T03:38:38;0.50;;;0.50;;
15230;SDS011;32569;51.762;8.564;2023-04-01T03:41:05;0.93;;;0.93;;
15230;SDS011;32569;51.762;8.564;2023-04-01T03:43:32;0.80;;;0.70;;
15230;SDS011;32569;51.762;8.564;2023-04-01T03:46:08;1.17;;;0.80;;
15230;SDS011;32569;51.762;8.564;2023-04-01T03:48:35;0.77;;;0.77;;
15230;SDS011;32569;51.762;8.564;2023-04-01T03:51:05;0.87;;;0.87;;
15230;SDS011;32569;51.762;8.564;2023-04-01T03:53:32;1.00;;;0.70;;
15230;SDS011;32569;51.762;8.564;2023-04-01T03:56:02;0.70;;;0.70;;
15230;SDS011;32569;51.762;8.564;2023-04-01T03:58:29;0.77;;;0.77;;
15230;SDS011;32569;51.762;8.564;2023-04-01T04:00:56;0.70;;;0.67;;
15230;SDS011;32569;51.762;8.564;2023-04-01T04:03:24;0.90;;;0.90;;
15230;SDS011;32569;51.762;8.564;2023-04-01T04:05:51;1.83;;;0.90;;
15230;SDS011;32569;51.762;8.564;2023-04-01T04:08:21;0.87;;;0.87;;
15230;SDS011;32569;51.762;8.564;2023-04-01T04:10:47;1.00;;;0.90;;
15230;SDS011;32569;51.762;8.564;2023-04-01T04:13:20;0.70;;;0.70;;
15230;SDS011;32569;51.762;8.564;2023-04-01T04:15:50;0.80;;;0.80;;
15230;SDS011;32569;51.762;8.564;2023-04-01T04:18:17;0.90;;;0.90;;
15230;SDS011;32569;51.762;8.564;2023-04-01T04:20:45;0.97;;;0.77;;
15230;SDS011;32569;51.762;8.564;2023-04-01T04:23:15;0.70;;;0.70;;
15230;SDS011;32569;51.762;8.564;2023-04-01T04:25:41;0.70;;;0.70;;
15230;SDS011;32569;51.762;8.564;2023-04-01T04:28:18;0.60;;;0.60;;
15230;SDS011;32569;51.762;8.564;2023-04-01T04:30:45;0.73;;;0.73;;
15230;SDS011;32569;51.762;8.564;2023-04-01T04:33:11;0.80;;;0.80;;
15230;SDS011;32569;51.762;8.564;2023-04-01T04:35:38;1.03;;;0.90;;
15230;SDS011;32569;51.762;8.564;2023-04-01T04:38:06;2.20;;;0.90;;
15230;SDS011;32569;51.762;8.564;2023-04-01T04:40:35;0.97;;;0.60;;
15230;SDS011;32569;51.762;8.564;2023-04-01T04:43:05;1.37;;;0.80;;
15230;SDS011;32569;51.762;8.564;2023-04-01T04:45:32;0.73;;;0.70;;
15230;SDS011;32569;51.762;8.564;2023-04-01T04:47:59;0.93;;;0.73;;
15230;SDS011;32569;51.762;8.564;2023-04-01T04:50:26;1.30;;;0.90;;
15230;SDS011;32569;51.762;8.564;2023-04-01T04:52:52;0.80;;;0.80;;
15230;SDS011;32569;51.762;8.564;2023-04-01T04:55:21;0.70;;;0.70;;
15230;SDS011;32569;51.762;8.564;2023-04-01T04:57:47;0.80;;;0.80;;
15230;SDS011;32569;51.762;8.564;2023-04-01T05:00:14;0.90;;;0.90;;
15230;SDS011;32569;51.762;8.564;2023-04-01T05:02:41;0.77;;;0.77;;
15230;SDS011;32569;51.762;8.564;2023-04-01T05:05:08;0.70;;;0.70;;
15230;SDS011;32569;51.762;8.564;2023-04-01T05:07:35;0.93;;;0.93;;
15230;SDS011;32569;51.762;8.564;2023-04-01T05:10:02;1.00;;;1.00;;
15230;SDS011;32569;51.762;8.564;2023-04-01T05:12:31;1.47;;;1.10;;
15230;SDS011;32569;51.762;8.564;2023-04-01T05:15:01;1.03;;;1.03;;
15230;SDS011;32569;51.762;8.564;2023-04-01T05:17:28;1.10;;;0.70;;
15230;SDS011;32569;51.762;8.564;2023-04-01T05:19:54;1.73;;;1.20;;
15230;SDS011;32569;51.762;8.564;2023-04-01T05:22:21;1.20;;;1.10;;
15230;SDS011;32569;51.762;8.564;2023-04-01T05:24:48;1.00;;;1.00;;
15230;SDS011;32569;51.762;8.564;2023-04-01T05:27:15;1.00;;;1.00;;
15230;SDS011;32569;51.762;8.564;2023-04-01T05:29:43;0.70;;;0.70;;
15230;SDS011;32569;51.762;8.564;2023-04-01T05:32:09;0.77;;;0.70;;
15230;SDS011;32569;51.762;8.564;2023-04-01T05:34:36;0.87;;;0.87;;
15230;SDS011;32569;51.762;8.564;2023-04-01T05:37:02;1.10;;;1.00;;
15230;SDS011;32569;51.762;8.564;2023-04-01T05:39:29;0.63;;;0.63;;
15230;SDS011;32569;51.762;8.564;2023-04-01T05:41:56;0.80;;;0.80;;
15230;SDS011;32569;51.762;8.564;2023-04-01T05:44:22;0.97;;;0.97;;
15230;SDS011;32569;51.762;8.564;2023-04-01T05:46:54;0.70;;;0.70;;
15230;SDS011;32569;51.762;8.564;2023-04-01T05:49:20;1.00;;;1.00;;
15230;SDS011;32569;51.762;8.564;2023-04-01T05:51:50;1.00;;;1.00;;
15230;SDS011;32569;51.762;8.564;2023-04-01T05:54:17;2.70;;;1.30;;
15230;SDS011;32569;51.762;8.564;2023-04-01T05:56:44;0.90;;;0.70;;
15230;SDS011;32569;51.762;8.564;2023-04-01T05:59:14;1.30;;;0.90;;
15230;SDS011;32569;51.762;8.564;2023-04-01T06:01:40;0.70;;;0.70;;
15230;SDS011;32569;51.762;8.564;2023-04-01T06:04:10;0.80;;;0.80;;
15230;SDS011;32569;51.762;8.564;2023-04-01T06:06:40;0.80;;;0.80;;
15230;SDS011;32569;51.762;8.564;2023-04-01T06:09:10;0.70;;;0.70;;
15230;SDS011;32569;51.762;8.564;2023-04-01T06:11:41;0.80;;;0.80;;
15230;SDS011;32569;51.762;8.564;2023-04-01T06:14:30;0.60;;;0.60;;
15230;SDS011;32569;51.762;8.564;2023-04-01T06:17:08;0.80;;;0.80;;
15230;SDS011;32569;51.762;8.564;2023-04-01T06:19:47;0.97;;;0.80;;
15230;SDS011;32569;51.762;8.564;2023-04-01T06:22:27;0.90;;;0.90;;
15230;SDS011;32569;51.762;8.564;2023-04-01T06:25:23;1.70;;;1.10;;
15230;SDS011;32569;51.762;8.564;2023-04-01T06:28:07;1.03;;;0.80;;
15230;SDS011;32569;51.762;8.564;2023-04-01T06:30:59;1.10;;;1.10;;
15230;SDS011;32569;51.762;8.564;2023-04-01T06:33:39;1.30;;;1.20;;
15230;SDS011;32569;51.762;8.564;2023-04-01T06:36:24;1.20;;;1.03;;
15230;SDS011;32569;51.762;8.564;2023-04-01T06:42:13;0.93;;;0.90;;
15230;SDS011;32569;51.762;8.564;2023-04-01T06:44:52;1.10;;;1.00;;
15230;SDS011;32569;51.762;8.564;2023-04-01T06:47:29;1.50;;;0.90;;
15230;SDS011;32569;51.762;8.564;2023-04-01T06:50:08;1.40;;;1.07;;
15230;SDS011;32569;51.762;8.564;2023-04-01T06:52:48;1.03;;;0.80;;
15230;SDS011;32569;51.762;8.564;2023-04-01T06:55:24;0.80;;;0.80;;
15230;SDS011;32569;51.762;8.564;2023-04-01T06:57:58;1.03;;;0.90;;
15230;SDS011;32569;51.762;8.564;2023-04-01T07:00:29;0.90;;;0.80;;
15230;SDS011;32569;51.762;8.564;2023-04-01T07:03:01;0.80;;;0.80;;
15230;SDS011;32569;51.762;8.564;2023-04-01T07:05:33;0.60;;;0.60;;
15230;SDS011;32569;51.762;8.564;2023-04-01T07:08:10;1.20;;;0.80;;
15230;SDS011;32569;51.762;8.564;2023-04-01T07:10:42;1.00;;;1.00;;
15230;SDS011;32569;51.762;8.564;2023-04-01T07:13:12;0.80;;;0.80;;
15230;SDS011;32569;51.762;8.564;2023-04-01T07:15:43;1.00;;;1.00;;
15230;SDS011;32569;51.762;8.564;2023-04-01T07:18:14;0.83;;;0.83;;
15230;SDS011;32569;51.762;8.564;2023-04-01T07:20:43;1.00;;;1.00;;
15230;SDS011;32569;51.762;8.564;2023-04-01T07:23:16;1.20;;;1.10;;
15230;SDS011;32569;51.762;8.564;2023-04-01T07:25:51;0.93;;;0.90;;
15230;SDS011;32569;51.762;8.564;2023-04-01T07:28:19;0.77;;;0.77;;
15230;SDS011;32569;51.762;8.564;2023-04-01T07:30:49;1.27;;;1.00;;
15230;SDS011;32569;51.762;8.564;2023-04-01T07:33:24;1.40;;;0.97;;
15230;SDS011;32569;51.762;8.564;2023-04-01T07:35:56;1.50;;;1.40;;
15230;SDS011;32569;51.762;8.564;2023-04-01T07:38:30;3.50;;;1.97;;
15230;SDS011;32569;51.762;8.564;2023-04-01T07:41:07;2.60;;;2.40;;
15230;SDS011;32569;51.762;8.564;2023-04-01T07:43:41;1.63;;;1.27;;
15230;SDS011;32569;51.762;8.564;2023-04-01T07:46:17;1.10;;;1.10;;
15230;SDS011;32569;51.762;8.564;2023-04-01T07:48:55;1.20;;;1.10;;
15230;SDS011;32569;51.762;8.564;2023-04-01T07:51:31;4.60;;;4.20;;
15230;SDS011;32569;51.762;8.564;2023-04-01T07:54:06;2.97;;;2.70;;
15230;SDS011;32569;51.762;8.564;2023-04-01T07:56:38;2.40;;;2.20;;
15230;SDS011;32569;51.762;8.564;2023-04-01T07:59:11;3.00;;;2.80;;
15230;SDS011;32569;51.762;8.564;2023-04-01T08:01:49;1.70;;;1.60;;
15230;SDS011;32569;51.762;8.564;2023-04-01T08:04:23;1.93;;;1.70;;
15230;SDS011;32569;51.762;8.564;2023-04-01T08:07:03;1.10;;;1.00;;
15230;SDS011;32569;51.762;8.564;2023-04-01T08:09:37;1.00;;;1.00;;
15230;SDS011;32569;51.762;8.564;2023-04-01T08:12:13;1.00;;;1.00;;
15230;SDS011;32569;51.762;8.564;2023-04-01T08:14:51;1.70;;;0.90;;
15230;SDS011;32569;51.762;8.564;2023-04-01T08:17:28;0.70;;;0.70;;
15230;SDS011;32569;51.762;8.564;2023-04-01T08:20:14;0.87;;;0.87;;
15230;SDS011;32569;51.762;8.564;2023-04-01T08:22:52;0.90;;;0.90;;
15230;SDS011;32569;51.762;8.564;2023-04-01T08:25:25;1.20;;;0.80;;
15230;SDS011;32569;51.762;8.564;2023-04-01T08:27:55;0.80;;;0.80;;
15230;SDS011;32569;51.762;8.564;2023-04-01T08:30:26;1.10;;;1.00;;
15230;SDS011;32569;51.762;8.564;2023-04-01T08:32:58;1.50;;;1.40;;
15230;SDS011;32569;51.762;8.564;2023-04-01T08:35:31;1.47;;;1.37;;
15230;SDS011;32569;51.762;8.564;2023-04-01T08:38:04;0.90;;;0.90;;
15230;SDS011;32569;51.762;8.564;2023-04-01T08:40:46;1.40;;;1.30;;
15230;SDS011;32569;51.762;8.564;2023-04-01T08:43:35;4.13;;;3.13;;
15230;SDS011;32569;51.762;8.564;2023-04-01T08:46:17;57.77;;;30.90;;
15230;SDS011;32569;51.762;8.564;2023-04-01T08:49:01;46.70;;;25.87;;
15230;SDS011;32569;51.762;8.564;2023-04-01T08:51:48;46.57;;;34.67;;
15230;SDS011;32569;51.762;8.564;2023-04-01T08:54:31;20.83;;;18.77;;
15230;SDS011;32569;51.762;8.564;2023-04-01T08:57:13;2.10;;;2.00;;
15230;SDS011;32569;51.762;8.564;2023-04-01T08:59:50;2.83;;;2.60;;
15230;SDS011;32569;51.762;8.564;2023-04-01T09:02:49;1.70;;;1.60;;
15230;SDS011;32569;51.762;8.564;2023-04-01T09:05:34;1.00;;;1.00;;
15230;SDS011;32569;51.762;8.564;2023-04-01T09:08:17;1.30;;;1.30;;
15230;SDS011;32569;51.762;8.564;2023-04-01T09:10:59;1.43;;;1.30;;
15230;SDS011;32569;51.762;8.564;2023-04-01T09:13:59;1.60;;;1.50;;
15230;SDS011;32569;51.762;8.564;2023-04-01T09:16:48;2.30;;;2.10;;
15230;SDS011;32569;51.762;8.564;2023-04-01T09:19:35;1.53;;;1.30;;
15230;SDS011;32569;51.762;8.564;2023-04-01T09:22:31;0.97;;;0.97;;
15230;SDS011;32569;51.762;8.564;2023-04-01T09:25:14;1.00;;;1.00;;
15230;SDS011;32569;51.762;8.564;2023-04-01T09:28:07;0.87;;;0.87;;
15230;SDS011;32569;51.762;8.564;2023-04-01T09:30:43;0.83;;;0.83;;
15230;SDS011;32569;51.762;8.564;2023-04-01T09:33:39;1.10;;;1.10;;
15230;SDS011;32569;51.762;8.564;2023-04-01T09:36:24;1.00;;;1.00;;
15230;SDS011;32569;51.762;8.564;2023-04-01T09:39:06;1.13;;;1.10;;
15230;SDS011;32569;51.762;8.564;2023-04-01T09:42:15;1.47;;;1.10;;
15230;SDS011;32569;51.762;8.564;2023-04-01T09:44:57;1.17;;;1.17;;
15230;SDS011;32569;51.762;8.564;2023-04-01T09:47:34;1.20;;;1.10;;
15230;SDS011;32569;51.762;8.564;2023-04-01T09:53:02;2.80;;;1.60;;
15230;SDS011;32569;51.762;8.564;2023-04-01T09:58:58;1.80;;;1.70;;
15230;SDS011;32569;51.762;8.564;2023-04-01T10:01:52;2.00;;;1.80;;
15230;SDS011;32569;51.762;8.564;2023-04-01T10:04:51;1.43;;;1.00;;
15230;SDS011;32569;51.762;8.564;2023-04-01T10:08:06;0.90;;;0.90;;
15230;SDS011;32569;51.762;8.564;2023-04-01T10:11:00;1.37;;;1.27;;
15230;SDS011;32569;51.762;8.564;2023-04-01T10:13:51;0.93;;;0.93;;
15230;SDS011;32569;51.762;8.564;2023-04-01T10:19:46;1.30;;;1.30;;
15230;SDS011;32569;51.762;8.564;2023-04-01T10:22:56;1.70;;;1.63;;
15230;SDS011;32569;51.762;8.564;2023-04-01T10:28:41;1.40;;;1.30;;
15230;SDS011;32569;51.762;8.564;2023-04-01T10:34:38;1.20;;;1.10;;
15230;SDS011;32569;51.762;8.564;2023-04-01T10:37:34;1.40;;;1.30;;
15230;SDS011;32569;51.762;8.564;2023-04-01T10:40:39;0.80;;;0.80;;
15230;SDS011;32569;51.762;8.564;2023-04-01T10:43:43;0.97;;;0.97;;
15230;SDS011;32569;51.762;8.564;2023-04-01T10:46:44;0.97;;;0.90;;
15230;SDS011;32569;51.762;8.564;2023-04-01T10:49:32;1.00;;;1.00;;
15230;SDS011;32569;51.762;8.564;2023-04-01T10:55:15;1.00;;;1.00;;
15230;SDS011;32569;51.762;8.564;2023-04-01T10:58:22;0.87;;;0.87;;
15230;SDS011;32569;51.762;8.564;2023-04-01T11:01:18;0.87;;;0.87;;
15230;SDS011;32569;51.762;8.564;2023-04-01T11:10:19;1.00;;;1.00;;
15230;SDS011;32569;51.762;8.564;2023-04-01T11:16:47;0.93;;;0.93;;
15230;SDS011;32569;51.762;8.564;2023-04-01T11:19:54;0.80;;;0.80;;
15230;SDS011;32569;51.762;8.564;2023-04-01T11:22:50;0.90;;;0.90;;
15230;SDS011;32569;51.762;8.564;2023-04-01T11:25:29;0.70;;;0.70;;
15230;SDS011;32569;51.762;8.564;2023-04-01T11:28:27;0.70;;;0.70;;
15230;SDS011;32569;51.762;8.564;2023-04-01T11:31:15;1.20;;;0.90;;
15230;SDS011;32569;51.762;8.564;2023-04-01T11:33:57;1.20;;;1.10;;
15230;SDS011;32569;51.762;8.564;2023-04-01T11:36:36;2.67;;;1.30;;
15230;SDS011;32569;51.762;8.564;2023-04-01T11:39:11;1.10;;;1.10;;
15230;SDS011;32569;51.762;8.564;2023-04-01T11:41:49;1.20;;;1.10;;
15230;SDS011;32569;51.762;8.564;2023-04-01T11:44:22;1.23;;;1.23;;
15230;SDS011;32569;51.762;8.564;2023-04-01T11:46:56;1.90;;;1.40;;
15230;SDS011;32569;51.762;8.564;2023-04-01T11:49:39;1.13;;;1.00;;
15230;SDS011;32569;51.762;8.564;2023-04-01T11:52:15;1.47;;;1.20;;
15230;SDS011;32569;51.762;8.564;2023-04-01T11:55:01;2.80;;;2.60;;
15230;SDS011;32569;51.762;8.564;2023-04-01T11:57:43;5.27;;;4.87;;
15230;SDS011;32569;51.762;8.564;2023-04-01T12:00:23;2.30;;;2.20;;
15230;SDS011;32569;51.762;8.564;2023-04-01T12:03:09;1.90;;;1.80;;
15230;SDS011;32569;51.762;8.564;2023-04-01T12:05:48;1.60;;;1.50;;
15230;SDS011;32569;51.762;8.564;2023-04-01T12:08:23;2.10;;;2.00;;
15230;SDS011;32569;51.762;8.564;2023-04-01T12:10:57;2.50;;;2.30;;
15230;SDS011;32569;51.762;8.564;2023-04-01T12:13:36;1.50;;;1.40;;
15230;SDS011;32569;51.762;8.564;2023-04-01T12:19:03;2.53;;;2.43;;
15230;SDS011;32569;51.762;8.564;2023-04-01T12:21:43;4.40;;;4.10;;
15230;SDS011;32569;51.762;8.564;2023-04-01T12:24:24;4.17;;;3.87;;
15230;SDS011;32569;51.762;8.564;2023-04-01T12:27:05;2.37;;;2.27;;
15230;SDS011;32569;51.762;8.564;2023-04-01T12:29:54;4.60;;;4.30;;
15230;SDS011;32569;51.762;8.564;2023-04-01T12:32:37;2.07;;;1.90;;
15230;SDS011;32569;51.762;8.564;2023-04-01T12:35:13;4.13;;;3.83;;
15230;SDS011;32569;51.762;8.564;2023-04-01T12:37:55;3.50;;;3.20;;
15230;SDS011;32569;51.762;8.564;2023-04-01T12:40:40;5.83;;;5.33;;
15230;SDS011;32569;51.762;8.564;2023-04-01T12:43:34;5.80;;;5.30;;
15230;SDS011;32569;51.762;8.564;2023-04-01T12:46:23;7.87;;;6.73;;
15230;SDS011;32569;51.762;8.564;2023-04-01T12:49:07;5.20;;;4.50;;
15230;SDS011;32569;51.762;8.564;2023-04-01T12:51:50;3.47;;;2.73;;
15230;SDS011;32569;51.762;8.564;2023-04-01T12:54:38;4.90;;;4.50;;
15230;SDS011;32569;51.762;8.564;2023-04-01T12:57:29;3.43;;;2.60;;
15230;SDS011;32569;51.762;8.564;2023-04-01T13:00:14;1.83;;;1.73;;
15230;SDS011;32569;51.762;8.564;2023-04-01T13:03:01;2.00;;;1.87;;
15230;SDS011;32569;51.762;8.564;2023-04-01T13:06:07;1.80;;;1.70;;
15230;SDS011;32569;51.762;8.564;2023-04-01T13:08:48;3.13;;;2.83;;
15230;SDS011;32569;51.762;8.564;2023-04-01T13:11:24;2.00;;;1.90;;
15230;SDS011;32569;51.762;8.564;2023-04-01T13:14:14;2.33;;;2.00;;
15230;SDS011;32569;51.762;8.564;2023-04-01T13:16:57;2.67;;;2.47;;
15230;SDS011;32569;51.762;8.564;2023-04-01T13:19:30;4.37;;;3.97;;
15230;SDS011;32569;51.762;8.564;2023-04-01T13:22:03;2.57;;;2.37;;
15230;SDS011;32569;51.762;8.564;2023-04-01T13:24:39;2.73;;;2.53;;
15230;SDS011;32569;51.762;8.564;2023-04-01T13:27:16;2.17;;;2.07;;
15230;SDS011;32569;51.762;8.564;2023-04-01T13:29:51;2.30;;;2.20;;
15230;SDS011;32569;51.762;8.564;2023-04-01T13:32:28;2.27;;;2.07;;
15230;SDS011;32569;51.762;8.564;2023-04-01T13:35:05;3.03;;;2.83;;
15230;SDS011;32569;51.762;8.564;2023-04-01T13:37:51;3.53;;;3.27;;
15230;SDS011;32569;51.762;8.564;2023-04-01T13:40:33;2.20;;;2.10;;
15230;SDS011;32569;51.762;8.564;2023-04-01T13:43:07;2.80;;;2.60;;
15230;SDS011;32569;51.762;8.564;2023-04-01T13:45:42;2.10;;;2.00;;
15230;SDS011;32569;51.762;8.564;2023-04-01T13:48:42;2.50;;;2.30;;
15230;SDS011;32569;51.762;8.564;2023-04-01T13:51:36;2.63;;;2.43;;
15230;SDS011;32569;51.762;8.564;2023-04-01T13:54:23;2.60;;;2.40;;
15230;SDS011;32569;51.762;8.564;2023-04-01T13:57:06;2.60;;;2.40;;
15230;SDS011;32569;51.762;8.564;2023-04-01T14:02:57;2.53;;;2.33;;
15230;SDS011;32569;51.762;8.564;2023-04-01T14:05:46;2.33;;;2.17;;
15230;SDS011;32569;51.762;8.564;2023-04-01T14:08:20;2.50;;;2.30;;
15230;SDS011;32569;51.762;8.564;2023-04-01T14:11:05;3.50;;;3.20;;
15230;SDS011;32569;51.762;8.564;2023-04-01T14:13:44;3.63;;;3.33;;
15230;SDS011;32569;51.762;8.564;2023-04-01T14:16:26;4.97;;;3.80;;
15230;SDS011;32569;51.762;8.564;2023-04-01T14:19:22;3.57;;;3.27;;
15230;SDS011;32569;51.762;8.564;2023-04-01T14:22:03;11.87;;;9.63;;
15230;SDS011;32569;51.762;8.564;2023-04-01T14:24:46;15.27;;;9.47;;
15230;SDS011;32569;51.762;8.564;2023-04-01T14:27:41;6.77;;;6.10;;
15230;SDS011;32569;51.762;8.564;2023-04-01T14:33:23;4.77;;;3.73;;
15230;SDS011;32569;51.762;8.564;2023-04-01T14:36:01;4.90;;;3.90;;
15230;SDS011;32569;51.762;8.564;2023-04-01T14:38:47;2.97;;;2.77;;
15230;SDS011;32569;51.762;8.564;2023-04-01T14:41:25;3.40;;;3.07;;
15230;SDS011;32569;51.762;8.564;2023-04-01T14:44:17;3.83;;;3.53;;
15230;SDS011;32569;51.762;8.564;2023-04-01T14:47:11;4.30;;;3.90;;
15230;SDS011;32569;51.762;8.564;2023-04-01T14:50:02;3.43;;;3.13;;
15230;SDS011;32569;51.762;8.564;2023-04-01T14:52:32;3.10;;;2.90;;
15230;SDS011;32569;51.762;8.564;2023-04-01T14:55:02;2.70;;;2.50;;
15230;SDS011;32569;51.762;8.564;2023-04-01T14:57:57;2.80;;;2.60;;
15230;SDS011;32569;51.762;8.564;2023-04-01T15:00:25;3.30;;;3.00;;
15230;SDS011;32569;51.762;8.564;2023-04-01T15:02:54;2.70;;;2.50;;
15230;SDS011;32569;51.762;8.564;2023-04-01T15:05:32;2.77;;;2.57;;
15230;SDS011;32569;51.762;8.564;2023-04-01T15:08:14;3.27;;;2.50;;
15230;SDS011;32569;51.762;8.564;2023-04-01T15:10:52;2.80;;;2.60;;
15230;SDS011;32569;51.762;8.564;2023-04-01T15:13:35;4.43;;;3.90;;
15230;SDS011;32569;51.762;8.564;2023-04-01T15:16:13;7.43;;;5.73;;
15230;SDS011;32569;51.762;8.564;2023-04-01T15:18:54;3.90;;;3.37;;
15230;SDS011;32569;51.762;8.564;2023-04-01T15:21:32;3.20;;;2.57;;
15230;SDS011;32569;51.762;8.564;2023-04-01T15:24:09;3.70;;;3.40;;
15230;SDS011;32569;51.762;8.564;2023-04-01T15:30:02;3.40;;;3.20;;
15230;SDS011;32569;51.762;8.564;2023-04-01T15:32:47;3.90;;;3.30;;
15230;SDS011;32569;51.762;8.564;2023-04-01T15:35:26;2.63;;;2.43;;
15230;SDS011;32569;51.762;8.564;2023-04-01T15:38:06;5.10;;;4.60;;
15230;SDS011;32569;51.762;8.564;2023-04-01T15:40:44;5.37;;;4.67;;
15230;SDS011;32569;51.762;8.564;2023-04-01T15:43:20;4.60;;;4.20;;
15230;SDS011;32569;51.762;8.564;2023-04-01T15:45:58;4.73;;;4.33;;
15230;SDS011;32569;51.762;8.564;2023-04-01T15:48:40;4.70;;;4.30;;
15230;SDS011;32569;51.762;8.564;2023-04-01T15:51:23;5.03;;;4.63;;
15230;SDS011;32569;51.762;8.564;2023-04-01T15:57:10;4.93;;;4.43;;
15230;SDS011;32569;51.762;8.564;2023-04-01T15:59:50;4.93;;;4.53;;
15230;SDS011;32569;51.762;8.564;2023-04-01T16:02:29;5.00;;;4.57;;
15230;SDS011;32569;51.762;8.564;2023-04-01T16:05:01;5.30;;;4.90;;
15230;SDS011;32569;51.762;8.564;2023-04-01T16:07:40;5.10;;;4.70;;
15230;SDS011;32569;51.762;8.564;2023-04-01T16:10:21;5.20;;;4.80;;
15230;SDS011;32569;51.762;8.564;2023-04-01T16:13:12;5.63;;;5.13;;
15230;SDS011;32569;51.762;8.564;2023-04-01T16:15:51;5.57;;;5.07;;
15230;SDS011;32569;51.762;8.564;2023-04-01T16:18:34;5.60;;;5.20;;
15230;SDS011;32569;51.762;8.564;2023-04-01T16:21:19;5.50;;;5.10;;
15230;SDS011;32569;51.762;8.564;2023-04-01T16:23:55;7.90;;;6.40;;
15230;SDS011;32569;51.762;8.564;2023-04-01T16:26:28;4.13;;;3.80;;
15230;SDS011;32569;51.762;8.564;2023-04-01T16:29:03;4.43;;;4.03;;
15230;SDS011;32569;51.762;8.564;2023-04-01T16:31:42;3.50;;;3.20;;
15230;SDS011;32569;51.762;8.564;2023-04-01T16:34:14;3.57;;;3.27;;
15230;SDS011;32569;51.762;8.564;2023-04-01T16:36:47;3.77;;;3.20;;